Seven Sins — ZCOD6 — position and weather

sailwx.info

Track history (hours):
 
Tides and Currents Weather Stations Pressure Air Temp Water Temp Dewpoint Dewpoint Depression Visibility Wind Speed Wind Dir Waves Ship Positions

Seven Sins

Last reported at 2014-Oct-31 09:29 UTC. Time now 2014-Oct-31 09:50 UTC.
Position N 43°42' E 007°19'.

Length 43 m; draft 3.1 m.

Type: Pleasure craft. MMSI: 319425000.

Date/timePositionNaut miles runAvg speedWind from/ knotsBaromVisibWave heightAir tempDewpointWater temp
2014-Oct-31 09:29N 43°42' E 007°19'0 0.0
2014-Oct-31 08:29N 43°42' E 007°19'0 0.0
2014-Oct-31 07:29N 43°42' E 007°19'0 0.0
2014-Oct-31 06:23N 43°42' E 007°19'0 0.0
2014-Oct-31 05:29N 43°42' E 007°19'0 0.0
2014-Oct-31 04:29N 43°42' E 007°19'0 0.0
2014-Oct-31 03:17N 43°42' E 007°19'0 0.0
2014-Oct-31 02:23N 43°42' E 007°19'0 0.0
2014-Oct-31 01:29N 43°42' E 007°19'0 0.0
2014-Oct-31 00:29N 43°42' E 007°19'0 0.0
2014-Oct-30 23:23N 43°42' E 007°19'0 0.0
2014-Oct-30 22:29N 43°42' E 007°19'0 0.0
2014-Oct-30 21:29N 43°42' E 007°19'0 0.0
2014-Oct-30 20:29N 43°42' E 007°19'0 0.0
2014-Oct-30 19:29N 43°42' E 007°19'0 0.0
2014-Oct-30 18:29N 43°42' E 007°19'0 0.0
2014-Oct-30 17:29N 43°42' E 007°19'0 0.0
2014-Oct-30 16:29N 43°42' E 007°19'0 0.0
2014-Oct-30 15:26N 43°42' E 007°19'1 1.1
2014-Oct-30 14:19N 43°41' E 007°21'0 0.0
2014-Oct-30 13:28N 43°41' E 007°21'0 0.0
2014-Oct-30 12:33N 43°41' E 007°21'0 0.0
2014-Oct-30 11:32N 43°41' E 007°21'0 0.0
2014-Oct-30 10:33N 43°41' E 007°21'4 0.2
2014-Oct-29 08:29N 43°44' E 007°26'9 9.8
2014-Oct-29 07:33N 43°37' E 007°17'9 9.0
2014-Oct-29 06:33N 43°33' E 007°07'1 0.8
2014-Oct-29 05:30N 43°33' E 007°06'0 0.0
2014-Oct-29 04:24N 43°33' E 007°06'0 0.0
2014-Oct-29 03:24N 43°33' E 007°06'0 0.0
2014-Oct-29 02:30N 43°33' E 007°06'0 0.0
2014-Oct-29 01:24N 43°33' E 007°06'0 0.0
2014-Oct-29 00:30N 43°33' E 007°06'0 0.0
2014-Oct-28 23:30N 43°33' E 007°06'0 0.0
2014-Oct-28 22:30N 43°33' E 007°06'0 0.0
2014-Oct-28 21:30N 43°33' E 007°06'0 0.0
2014-Oct-28 20:24N 43°33' E 007°06'0 0.0
2014-Oct-28 19:30N 43°33' E 007°06'0 0.0
2014-Oct-28 18:24N 43°33' E 007°06'0 0.0
2014-Oct-28 17:30N 43°33' E 007°06'0 0.0
2014-Oct-28 16:30N 43°33' E 007°06'0 0.0
2014-Oct-28 15:30N 43°33' E 007°06'0 0.0
2014-Oct-28 14:30N 43°33' E 007°06'0 0.0
2014-Oct-28 13:24N 43°33' E 007°06'0 0.0
2014-Oct-28 12:30N 43°33' E 007°06'0 0.0
2014-Oct-28 11:30N 43°33' E 007°06'0 0.0
2014-Oct-28 10:12N 43°33' E 007°06'0 0.0
2014-Oct-28 09:30N 43°33' E 007°06'2 2.6
2014-Oct-28 08:33N 43°31' E 007°05'4 0.1
2014-Oct-26 15:19N 43°33' E 007°01'2 2.3
2014-Oct-26 14:23N 43°31' E 006°60'810.0
2014-Oct-26 13:33N 43°24' E 006°53'1310.4
2014-Oct-26 12:21N 43°17' E 006°39'0 0.0
2014-Oct-24 15:32N 43°17' E 006°38'1010.1
2014-Oct-24 14:33N 43°22' E 006°50'10 9.6
2014-Oct-24 13:34N 43°29' E 006°59'4 1.8
2014-Oct-24 11:24N 43°33' E 007°01'  
2014-Oct-21 18:12N 43°33' E 007°01'0 0.0
2014-Oct-21 11:21N 43°33' E 007°01'3 4.2
2014-Oct-21 10:33N 43°32' E 007°05'1111.0
2014-Oct-21 09:31N 43°39' E 007°18'  
Track history (hours):
 
Tides and Currents Weather Stations Pressure Air Temp Water Temp Dewpoint Dewpoint Depression Visibility Wind Speed Wind Dir Waves Ship Positions

Seven Sins

Last reported at 2014-Oct-31 09:29 UTC. Time now 2014-Oct-31 09:50 UTC.
Position N 43°42' E 007°19'.

Length 43 m; draft 3.1 m.

Type: Pleasure craft. MMSI: 319425000.

Date/timePositionNaut miles runAvg speedWind from/ knotsBaromVisibWave heightAir tempDewpointWater temp
2014-Oct-31 09:29N 43°42' E 007°19'0 0.0
2014-Oct-31 08:29N 43°42' E 007°19'0 0.0
2014-Oct-31 07:29N 43°42' E 007°19'0 0.0
2014-Oct-31 06:23N 43°42' E 007°19'0 0.0
2014-Oct-31 05:29N 43°42' E 007°19'0 0.0
2014-Oct-31 04:29N 43°42' E 007°19'0 0.0
2014-Oct-31 03:17N 43°42' E 007°19'0 0.0
2014-Oct-31 02:23N 43°42' E 007°19'0 0.0
2014-Oct-31 01:29N 43°42' E 007°19'0 0.0
2014-Oct-31 00:29N 43°42' E 007°19'0 0.0
2014-Oct-30 23:23N 43°42' E 007°19'0 0.0
2014-Oct-30 22:29N 43°42' E 007°19'0 0.0
2014-Oct-30 21:29N 43°42' E 007°19'0 0.0
2014-Oct-30 20:29N 43°42' E 007°19'0 0.0
2014-Oct-30 19:29N 43°42' E 007°19'0 0.0
2014-Oct-30 18:29N 43°42' E 007°19'0 0.0
2014-Oct-30 17:29N 43°42' E 007°19'0 0.0
2014-Oct-30 16:29N 43°42' E 007°19'0 0.0
2014-Oct-30 15:26N 43°42' E 007°19'1 1.1
2014-Oct-30 14:19N 43°41' E 007°21'0 0.0
2014-Oct-30 13:28N 43°41' E 007°21'0 0.0
2014-Oct-30 12:33N 43°41' E 007°21'0 0.0
2014-Oct-30 11:32N 43°41' E 007°21'0 0.0
2014-Oct-30 10:33N 43°41' E 007°21'4 0.2
2014-Oct-29 08:29N 43°44' E 007°26'9 9.8
2014-Oct-29 07:33N 43°37' E 007°17'9 9.0
2014-Oct-29 06:33N 43°33' E 007°07'1 0.8
2014-Oct-29 05:30N 43°33' E 007°06'0 0.0
2014-Oct-29 04:24N 43°33' E 007°06'0 0.0
2014-Oct-29 03:24N 43°33' E 007°06'0 0.0
2014-Oct-29 02:30N 43°33' E 007°06'0 0.0
2014-Oct-29 01:24N 43°33' E 007°06'0 0.0
2014-Oct-29 00:30N 43°33' E 007°06'0 0.0
2014-Oct-28 23:30N 43°33' E 007°06'0 0.0
2014-Oct-28 22:30N 43°33' E 007°06'0 0.0
2014-Oct-28 21:30N 43°33' E 007°06'0 0.0
2014-Oct-28 20:24N 43°33' E 007°06'0 0.0
2014-Oct-28 19:30N 43°33' E 007°06'0 0.0
2014-Oct-28 18:24N 43°33' E 007°06'0 0.0
2014-Oct-28 17:30N 43°33' E 007°06'0 0.0
2014-Oct-28 16:30N 43°33' E 007°06'0 0.0
2014-Oct-28 15:30N 43°33' E 007°06'0 0.0
2014-Oct-28 14:30N 43°33' E 007°06'0 0.0
2014-Oct-28 13:24N 43°33' E 007°06'0 0.0
2014-Oct-28 12:30N 43°33' E 007°06'0 0.0
2014-Oct-28 11:30N 43°33' E 007°06'0 0.0
2014-Oct-28 10:12N 43°33' E 007°06'0 0.0
2014-Oct-28 09:30N 43°33' E 007°06'2 2.6
2014-Oct-28 08:33N 43°31' E 007°05'4 0.1
2014-Oct-26 15:19N 43°33' E 007°01'2 2.3
2014-Oct-26 14:23N 43°31' E 006°60'810.0
2014-Oct-26 13:33N 43°24' E 006°53'1310.4
2014-Oct-26 12:21N 43°17' E 006°39'0 0.0
2014-Oct-24 15:32N 43°17' E 006°38'1010.1
2014-Oct-24 14:33N 43°22' E 006°50'10 9.6
2014-Oct-24 13:34N 43°29' E 006°59'4 1.8
2014-Oct-24 11:24N 43°33' E 007°01'  
2014-Oct-21 18:12N 43°33' E 007°01'0 0.0
2014-Oct-21 11:21N 43°33' E 007°01'3 4.2
2014-Oct-21 10:33N 43°32' E 007°05'1111.0
2014-Oct-21 09:31N 43°39' E 007°18'  

Dump ship's entire track history